Time;durP1;ratioP1;P1;durP2;ratioP2;P2;SDS_P1;SDS_P2;PMS_P1;PMS_P2;Temp;Humidity;BMP_temperature;BMP_pressure;BME280_temperature;BME280_humidity;BME280_pressure;Samples;Min_cycle;Max_cycle;Signal;HPM_P1;HPM_P2
2023/12/12 00:04:38;;;;;;;3.10;2.00;;;10.60;42.90;;;;;;10440601;28;20264;-79
2023/12/12 00:09:42;;;;;;;3.87;2.00;;;10.50;42.90;;;;;;10437063;28;20602;-79
2023/12/12 00:14:45;;;;;;;5.00;1.97;;;10.40;42.90;;;;;;10434340;28;20594;-79
2023/12/12 00:19:50;;;;;;;2.30;1.80;;;10.30;42.90;;;;;;10437829;28;20319;-79
2023/12/12 00:24:53;;;;;;;2.70;2.20;;;10.20;43.10;;;;;;10394931;28;1161028;-78
2023/12/12 00:29:57;;;;;;;6.17;2.57;;;10.20;43.00;;;;;;10429015;28;20233;-79
2023/12/12 00:35:02;;;;;;;4.20;2.30;;;10.10;43.00;;;;;;10440674;28;20235;-79
2023/12/12 00:40:07;;;;;;;4.47;2.00;;;10.00;43.30;;;;;;10436712;28;20308;-78
2023/12/12 00:45:11;;;;;;;3.33;1.77;;;9.90;44.50;;;;;;10438813;28;20664;-78
2023/12/12 00:50:15;;;;;;;3.00;1.43;;;9.90;45.50;;;;;;10439954;28;20283;-79
2023/12/12 00:55:18;;;;;;;5.43;1.80;;;9.90;45.80;;;;;;10439170;28;20225;-79
2023/12/12 01:00:22;;;;;;;3.33;1.63;;;9.90;45.80;;;;;;10437878;28;20244;-78
2023/12/12 01:05:27;;;;;;;4.67;1.50;;;9.90;46.00;;;;;;10438993;28;20241;-78
2023/12/12 01:10:30;;;;;;;2.67;1.37;;;10.00;45.40;;;;;;10435251;28;20241;-79
2023/12/12 01:15:33;;;;;;;2.00;1.23;;;10.00;45.10;;;;;;10430701;28;20249;-79
2023/12/12 01:20:38;;;;;;;4.17;1.50;;;10.00;45.00;;;;;;10427467;28;20224;-79
2023/12/12 01:25:41;;;;;;;2.77;1.30;;;10.10;45.30;;;;;;10431417;28;20323;-79
2023/12/12 01:30:44;;;;;;;2.17;1.40;;;10.20;45.30;;;;;;10438741;28;20240;-79
2023/12/12 01:35:49;;;;;;;4.07;1.77;;;10.20;45.00;;;;;;10438173;28;20319;-79
2023/12/12 01:40:53;;;;;;;2.77;1.53;;;10.30;44.80;;;;;;10430290;28;20243;-79
2023/12/12 01:45:58;;;;;;;3.87;1.73;;;10.20;44.40;;;;;;10433191;28;20319;-79
2023/12/12 01:51:03;;;;;;;1.70;1.37;;;10.20;44.40;;;;;;10439332;28;20304;-79
2023/12/12 01:56:07;;;;;;;2.80;1.60;;;10.20;44.60;;;;;;10429853;28;20229;-78
2023/12/12 02:01:11;;;;;;;6.10;1.60;;;10.20;44.50;;;;;;10435884;28;20229;-79
2023/12/12 02:06:22;;;;;;;2.63;1.20;;;10.30;44.40;;;;;;10438589;28;20225;-78
2023/12/12 02:11:25;;;;;;;3.00;1.33;;;10.30;43.90;;;;;;10435022;28;20264;-79
2023/12/12 02:16:29;;;;;;;3.23;1.10;;;10.40;43.80;;;;;;10436115;28;20233;-79
2023/12/12 02:21:33;;;;;;;3.10;1.50;;;10.30;43.60;;;;;;10437575;28;20228;-79
2023/12/12 02:26:37;;;;;;;4.30;1.70;;;10.40;43.70;;;;;;10433947;28;20687;-79
2023/12/12 02:31:40;;;;;;;2.73;1.50;;;10.40;43.70;;;;;;10435244;28;20233;-79
2023/12/12 02:36:45;;;;;;;3.17;1.47;;;10.40;43.80;;;;;;10431503;28;20845;-79
2023/12/12 02:41:48;;;;;;;3.70;1.40;;;10.30;44.40;;;;;;10430591;28;20239;-79
2023/12/12 02:46:51;;;;;;;1.93;1.40;;;10.20;44.40;;;;;;10435670;28;20236;-79
2023/12/12 02:51:56;;;;;;;1.97;1.30;;;10.20;44.60;;;;;;10426786;28;20308;-79
2023/12/12 02:57:00;;;;;;;2.67;1.30;;;10.20;44.70;;;;;;10430875;28;20260;-79
2023/12/12 03:02:03;;;;;;;2.50;1.27;;;10.30;44.40;;;;;;10434027;28;20309;-79
2023/12/12 03:07:08;;;;;;;2.40;1.60;;;10.30;44.30;;;;;;10434955;28;20356;-79
2023/12/12 03:12:11;;;;;;;2.13;1.40;;;10.30;44.00;;;;;;10433137;28;20229;-78
2023/12/12 03:17:14;;;;;;;2.10;1.20;;;10.40;43.70;;;;;;10424228;28;20233;-79
2023/12/12 03:22:19;;;;;;;1.83;1.50;;;10.30;43.50;;;;;;10432380;28;20274;-79
2023/12/12 03:27:22;;;;;;;1.60;1.50;;;10.30;43.30;;;;;;10435938;28;20241;-79
2023/12/12 03:32:25;;;;;;;1.43;1.27;;;10.30;43.00;;;;;;10431589;28;20233;-78
2023/12/12 03:37:30;;;;;;;1.40;1.30;;;10.30;42.80;;;;;;10430325;28;20237;-79
2023/12/12 03:42:33;;;;;;;2.30;1.40;;;10.30;42.70;;;;;;10431777;28;20299;-79
2023/12/12 03:47:36;;;;;;;2.77;1.50;;;10.20;42.70;;;;;;10430678;28;20788;-79
2023/12/12 03:52:42;;;;;;;1.60;1.40;;;10.20;42.80;;;;;;10426425;28;20243;-78
2023/12/12 03:57:45;;;;;;;2.63;1.30;;;10.10;42.90;;;;;;10427984;28;20239;-78
2023/12/12 04:02:48;;;;;;;1.77;1.20;;;10.10;42.80;;;;;;10429916;28;20321;-79
2023/12/12 04:07:53;;;;;;;1.43;1.30;;;10.10;43.00;;;;;;10440971;28;20793;-79
2023/12/12 04:12:56;;;;;;;1.80;1.30;;;10.00;43.00;;;;;;10438410;28;20232;-78
2023/12/12 04:18:00;;;;;;;1.50;1.27;;;10.00;43.10;;;;;;10440964;28;20229;-79
2023/12/12 04:23:05;;;;;;;2.77;1.30;;;10.00;43.10;;;;;;10437198;28;20245;-79
2023/12/12 04:28:08;;;;;;;3.17;1.60;;;10.00;43.20;;;;;;10431890;28;20232;-78
2023/12/12 04:33:11;;;;;;;2.30;1.40;;;9.90;44.10;;;;;;10432445;28;20626;-78
2023/12/12 04:38:16;;;;;;;2.70;1.50;;;9.90;44.20;;;;;;10437099;28;20236;-79
2023/12/12 04:43:19;;;;;;;1.90;1.60;;;9.90;44.30;;;;;;10435364;28;20229;-79
2023/12/12 04:48:23;;;;;;;1.50;1.30;;;9.90;44.90;;;;;;10432340;28;20244;-79
2023/12/12 04:53:28;;;;;;;2.13;1.17;;;9.80;44.20;;;;;;10432443;28;20237;-78
2023/12/12 04:58:31;;;;;;;1.80;1.23;;;9.80;44.40;;;;;;10434144;28;20267;-79
2023/12/12 05:03:35;;;;;;;2.13;1.33;;;9.80;44.30;;;;;;10428750;28;20264;-79
2023/12/12 05:08:41;;;;;;;1.53;1.10;;;9.80;44.50;;;;;;10429180;28;20237;-78
2023/12/12 05:13:45;;;;;;;2.50;1.40;;;9.80;44.30;;;;;;10418494;28;20279;-79
2023/12/12 05:18:49;;;;;;;1.47;1.27;;;9.80;44.20;;;;;;10436163;28;20288;-79
2023/12/12 05:23:54;;;;;;;1.30;1.20;;;9.80;44.20;;;;;;10432409;28;20272;-79
2023/12/12 05:28:57;;;;;;;1.97;1.50;;;9.80;44.30;;;;;;10436783;28;20221;-79
2023/12/12 05:34:00;;;;;;;1.60;1.50;;;9.80;44.30;;;;;;10432536;28;20245;-79
2023/12/12 05:39:05;;;;;;;1.90;1.53;;;9.80;44.40;;;;;;10424514;28;20229;-79
2023/12/12 05:44:08;;;;;;;3.47;1.83;;;9.80;44.50;;;;;;10433351;28;20320;-81
2023/12/12 05:49:15;;;;;;;4.80;2.43;;;9.80;44.30;;;;;;10427260;28;20889;-80
2023/12/12 05:54:20;;;;;;;4.23;3.00;;;9.70;44.10;;;;;;10433095;28;20291;-80
2023/12/12 05:59:28;;;;;;;3.30;3.00;;;9.70;44.30;;;;;;10440023;28;20237;-81
2023/12/12 06:04:31;;;;;;;3.33;2.93;;;9.70;44.40;;;;;;10434183;28;20788;-80
2023/12/12 06:09:36;;;;;;;3.00;2.70;;;9.70;44.50;;;;;;10431852;28;20351;-80
2023/12/12 06:14:39;;;;;;;3.60;3.07;;;9.60;44.60;;;;;;10442217;28;20229;-81
2023/12/12 06:19:42;;;;;;;5.80;3.93;;;9.70;44.70;;;;;;10443279;28;20316;-79
2023/12/12 06:24:47;;;;;;;5.10;4.40;;;9.60;44.80;;;;;;10437089;28;20765;-79
2023/12/12 06:29:50;;;;;;;5.60;3.63;;;9.60;45.00;;;;;;10428942;28;20220;-79
2023/12/12 06:34:53;;;;;;;4.93;4.03;;;9.60;45.10;;;;;;10436099;28;20286;-79
2023/12/12 06:39:58;;;;;;;6.07;5.47;;;9.60;45.20;;;;;;10436260;28;20233;-79
2023/12/12 06:45:02;;;;;;;10.00;8.93;;;9.70;45.30;;;;;;10433624;28;20742;-79
2023/12/12 06:50:06;;;;;;;10.43;9.37;;;9.70;45.10;;;;;;10438801;28;20225;-80
2023/12/12 06:55:12;;;;;;;8.60;7.67;;;9.70;45.20;;;;;;10435744;28;20264;-79
2023/12/12 07:00:16;;;;;;;7.07;6.07;;;9.80;45.40;;;;;;10432547;28;20306;-79
2023/12/12 07:05:19;;;;;;;7.37;6.20;;;9.80;45.30;;;;;;10434894;28;20240;-79
2023/12/12 07:10:24;;;;;;;7.57;6.27;;;9.80;45.20;;;;;;10440729;28;20282;-79
2023/12/12 07:15:28;;;;;;;5.77;5.27;;;9.80;45.30;;;;;;10426383;28;20751;-78
2023/12/12 07:20:31;;;;;;;7.47;6.77;;;9.80;45.20;;;;;;10420092;28;20239;-76
2023/12/12 07:25:35;;;;;;;8.10;7.30;;;9.90;45.40;;;;;;10422362;28;20228;-76
2023/12/12 07:30:38;;;;;;;10.00;9.00;;;9.90;45.40;;;;;;10425190;28;20227;-76
2023/12/12 07:35:42;;;;;;;18.97;16.30;;;9.90;45.30;;;;;;10422503;28;20261;-76
2023/12/12 07:40:46;;;;;;;19.87;17.53;;;9.90;45.40;;;;;;10429576;28;20231;-76
2023/12/12 07:45:50;;;;;;;19.13;16.67;;;9.90;45.70;;;;;;10436067;28;20260;-76
2023/12/12 07:50:53;;;;;;;16.20;14.50;;;9.90;45.60;;;;;;10432040;28;20315;-76
2023/12/12 07:55:58;;;;;;;16.93;13.07;;;9.90;45.60;;;;;;10433052;28;20241;-76
2023/12/12 08:01:01;;;;;;;15.53;14.00;;;10.00;45.00;;;;;;10432917;28;20232;-76
2023/12/12 08:06:07;;;;;;;16.00;14.03;;;10.00;44.80;;;;;;10426779;28;20233;-76
2023/12/12 08:11:14;;;;;;;13.80;12.30;;;10.00;44.70;;;;;;10428166;28;20236;-76
2023/12/12 08:16:18;;;;;;;9.27;8.37;;;10.00;45.00;;;;;;10426776;28;20236;-76
2023/12/12 08:21:21;;;;;;;9.33;7.80;;;10.10;44.80;;;;;;10429723;28;20640;-76
2023/12/12 08:26:25;;;;;;;10.23;9.20;;;10.00;44.70;;;;;;10423990;28;20252;-76
2023/12/12 08:31:29;;;;;;;5.53;4.50;;;10.00;44.90;;;;;;10426301;28;20263;-76
2023/12/12 08:36:32;;;;;;;4.47;4.00;;;10.10;44.90;;;;;;10428949;28;20286;-76
2023/12/12 08:41:38;;;;;;;4.17;3.80;;;10.10;44.90;;;;;;10427283;28;20758;-76
2023/12/12 08:46:43;;;;;;;6.63;6.03;;;10.00;45.30;;;;;;10425973;28;20264;-76
2023/12/12 08:51:47;;;;;;;12.80;11.50;;;9.90;46.00;;;;;;10433269;28;20225;-76
2023/12/12 08:56:52;;;;;;;14.53;13.03;;;10.10;45.20;;;;;;10429543;28;20265;-76
2023/12/12 09:01:56;;;;;;;20.87;18.40;;;10.10;45.40;;;;;;10432523;28;20235;-76
2023/12/12 09:07:00;;;;;;;17.63;15.30;;;10.10;45.30;;;;;;10428074;28;20283;-76
2023/12/12 09:12:05;;;;;;;10.97;9.40;;;10.10;45.20;;;;;;10426437;28;20317;-76
2023/12/12 09:17:08;;;;;;;10.73;9.43;;;10.20;45.60;;;;;;10426253;28;20243;-76
2023/12/12 09:22:11;;;;;;;8.87;7.97;;;10.10;45.50;;;;;;10424593;28;20325;-76
2023/12/12 09:27:16;;;;;;;6.70;6.00;;;10.10;45.90;;;;;;10423459;28;20254;-76
2023/12/12 09:32:19;;;;;;;7.50;6.70;;;10.10;46.40;;;;;;10422913;28;20610;-76
2023/12/12 09:37:23;;;;;;;9.23;8.30;;;10.10;46.30;;;;;;10427720;28;21328;-76
2023/12/12 09:42:34;;;;;;;7.37;6.73;;;10.10;46.40;;;;;;10428524;28;20233;-76
2023/12/12 09:47:38;;;;;;;5.20;4.70;;;10.20;47.40;;;;;;10422336;28;20270;-76
2023/12/12 09:52:45;;;;;;;8.10;6.03;;;10.30;46.80;;;;;;10428222;28;20233;-76
2023/12/12 09:57:50;;;;;;;5.17;4.63;;;10.30;46.90;;;;;;10425566;28;20323;-76
2023/12/12 10:02:58;;;;;;;5.27;4.77;;;10.30;47.30;;;;;;10425668;28;20660;-76
2023/12/12 10:08:03;;;;;;;5.23;4.73;;;10.40;47.30;;;;;;10424606;28;20306;-76
2023/12/12 10:13:17;;;;;;;6.40;4.60;;;10.50;47.30;;;;;;10423144;28;20252;-76
2023/12/12 10:18:22;;;;;;;4.23;3.83;;;10.60;47.50;;;;;;10425748;28;20287;-76
2023/12/12 10:23:28;;;;;;;5.23;4.33;;;10.80;47.70;;;;;;10423935;28;20236;-76
2023/12/12 10:28:33;;;;;;;4.97;4.17;;;10.90;47.20;;;;;;10420131;28;20247;-76
2023/12/12 10:33:38;;;;;;;5.50;5.00;;;11.00;47.40;;;;;;10424557;28;20252;-76
2023/12/12 10:38:41;;;;;;;5.37;4.87;;;11.10;47.20;;;;;;10416506;28;20279;-76
2023/12/12 10:43:48;;;;;;;6.70;6.10;;;11.20;46.90;;;;;;10417287;28;20306;-76
2023/12/12 10:48:52;;;;;;;3.97;3.60;;;11.20;46.90;;;;;;10426958;28;20244;-76
2023/12/12 10:53:58;;;;;;;4.10;3.67;;;11.30;46.90;;;;;;10424808;28;20221;-76
2023/12/12 10:59:03;;;;;;;8.60;7.80;;;11.40;47.10;;;;;;10423774;28;20231;-76
2023/12/12 11:04:27;;;;;;;11.67;10.47;;;11.50;47.00;;;;;;10420501;28;20229;-76
2023/12/12 11:09:31;;;;;;;7.23;6.50;;;11.60;46.70;;;;;;10423793;28;20260;-76
2023/12/12 11:14:37;;;;;;;4.60;4.20;;;11.60;46.70;;;;;;10429888;28;20241;-76
2023/12/12 11:19:40;;;;;;;3.30;3.00;;;11.60;46.80;;;;;;10429707;28;20225;-76
2023/12/12 11:25:02;;;;;;;6.37;2.63;;;11.70;46.60;;;;;;10427272;28;20233;-76
2023/12/12 11:30:09;;;;;;;3.17;2.70;;;11.70;47.10;;;;;;10428333;28;20354;-76
2023/12/12 11:35:30;;;;;;;2.90;2.33;;;11.70;46.70;;;;;;10432621;28;20244;-76
2023/12/12 11:40:37;;;;;;;2.30;2.07;;;11.70;47.00;;;;;;10427114;28;20257;-76
2023/12/12 11:45:42;;;;;;;3.03;2.73;;;11.70;46.70;;;;;;10430240;28;20247;-76
2023/12/12 11:50:46;;;;;;;2.63;2.43;;;11.80;46.70;;;;;;10434903;28;20237;-76
2023/12/12 11:55:50;;;;;;;2.33;2.10;;;11.90;46.80;;;;;;10431803;28;20233;-76
2023/12/12 12:00:54;;;;;;;2.63;2.30;;;11.90;46.50;;;;;;10425455;28;20224;-74
2023/12/12 12:05:57;;;;;;;2.27;2.00;;;11.90;46.10;;;;;;10435494;28;20269;-74
2023/12/12 12:11:01;;;;;;;2.77;2.00;;;12.00;46.10;;;;;;10427482;28;20229;-74
2023/12/12 12:16:08;;;;;;;2.43;2.23;;;12.00;46.00;;;;;;10429243;28;20320;-75
2023/12/12 12:21:11;;;;;;;2.70;2.30;;;12.00;45.90;;;;;;10430895;28;20287;-75
2023/12/12 12:26:14;;;;;;;4.10;2.53;;;12.00;46.00;;;;;;10436842;28;20233;-76
2023/12/12 12:31:29;;;;;;;2.93;2.60;;;12.10;46.00;;;;;;10449884;28;20713;-75
2023/12/12 12:36:38;;;;;;;5.73;5.13;;;12.10;45.60;;;;;;10448970;28;20335;-76
2023/12/12 12:41:43;;;;;;;3.27;2.50;;;12.10;45.60;;;;;;10450464;28;20282;-75
2023/12/12 12:46:52;;;;;;;2.97;2.03;;;12.10;45.70;;;;;;10441229;28;20238;-76
2023/12/12 12:51:55;;;;;;;2.60;2.40;;;12.10;45.60;;;;;;10449777;28;20229;-74
2023/12/12 12:56:58;;;;;;;2.37;1.67;;;12.10;45.60;;;;;;10448887;28;20612;-75
2023/12/12 13:02:03;;;;;;;2.10;1.90;;;12.20;45.50;;;;;;10446859;28;20256;-76
2023/12/12 13:07:07;;;;;;;1.77;1.67;;;12.20;45.40;;;;;;10443370;28;20233;-75
2023/12/12 13:12:10;;;;;;;2.10;1.90;;;12.20;45.40;;;;;;10443156;28;20321;-75
2023/12/12 13:17:15;;;;;;;2.30;1.73;;;12.10;45.30;;;;;;10448517;28;20233;-75
2023/12/12 13:22:18;;;;;;;3.50;2.10;;;12.20;45.30;;;;;;10445921;28;20244;-73
2023/12/12 13:27:21;;;;;;;2.20;2.00;;;12.20;45.40;;;;;;10432537;28;20242;-73
2023/12/12 13:32:26;;;;;;;3.83;3.53;;;12.20;45.40;;;;;;10422303;28;20319;-73
2023/12/12 13:37:29;;;;;;;7.33;4.90;;;12.20;45.40;;;;;;10429542;28;20312;-73
2023/12/12 13:42:33;;;;;;;3.03;2.30;;;12.20;45.40;;;;;;10433113;28;20243;-76
2023/12/12 13:47:38;;;;;;;2.60;1.80;;;12.20;45.60;;;;;;10433767;28;20290;-72
2023/12/12 13:52:42;;;;;;;2.93;1.90;;;12.20;45.60;;;;;;10431121;28;20236;-75
2023/12/12 13:57:45;;;;;;;1.90;1.80;;;12.20;45.80;;;;;;10428978;28;20363;-72
2023/12/12 14:02:50;;;;;;;1.77;1.50;;;12.20;45.80;;;;;;10432919;28;20293;-75
2023/12/12 14:07:53;;;;;;;2.00;1.90;;;12.20;45.90;;;;;;10427663;28;20335;-74
2023/12/12 14:13:00;;;;;;;2.23;1.87;;;12.20;45.90;;;;;;10431448;28;20225;-75
2023/12/12 14:18:05;;;;;;;2.30;2.10;;;12.20;46.10;;;;;;10430243;28;20291;-77
2023/12/12 14:23:09;;;;;;;2.60;2.40;;;12.30;46.20;;;;;;10422745;28;20324;-77
2023/12/12 14:28:15;;;;;;;3.10;2.47;;;12.30;46.00;;;;;;10440251;28;20236;-77
2023/12/12 14:33:20;;;;;;;2.60;2.40;;;12.30;46.00;;;;;;10436059;28;20332;-77
2023/12/12 14:38:23;;;;;;;2.37;1.97;;;12.20;45.90;;;;;;10439268;28;20241;-77
2023/12/12 14:43:28;;;;;;;3.13;2.83;;;12.10;46.00;;;;;;10429908;28;20290;-77
2023/12/12 14:48:32;;;;;;;3.53;3.17;;;12.00;46.00;;;;;;10424499;28;20770;-77
2023/12/12 14:53:36;;;;;;;4.87;3.93;;;12.00;46.30;;;;;;10431215;28;20755;-77
2023/12/12 14:58:40;;;;;;;7.17;5.73;;;11.90;46.20;;;;;;10429093;28;20239;-77
2023/12/12 15:03:45;;;;;;;16.13;12.20;;;11.90;46.30;;;;;;10432834;28;20234;-77
2023/12/12 15:08:48;;;;;;;13.00;9.67;;;11.90;46.60;;;;;;10428429;28;20256;-77
2023/12/12 15:13:52;;;;;;;8.03;5.23;;;11.90;46.40;;;;;;10425160;28;20259;-77
2023/12/12 15:18:57;;;;;;;8.40;4.93;;;11.90;46.50;;;;;;10431263;28;20799;-77
2023/12/12 15:24:01;;;;;;;6.97;5.70;;;11.90;46.80;;;;;;10428913;28;20323;-77
2023/12/12 15:29:04;;;;;;;18.27;13.73;;;11.90;46.60;;;;;;10425169;28;20327;-77
2023/12/12 15:34:08;;;;;;;11.83;8.60;;;11.90;46.70;;;;;;10429080;28;20240;-77
2023/12/12 15:39:12;;;;;;;8.97;7.17;;;11.90;47.00;;;;;;10422701;28;20234;-78
2023/12/12 15:44:15;;;;;;;4.93;4.27;;;11.90;46.90;;;;;;10431668;28;20236;-77
2023/12/12 15:49:20;;;;;;;7.73;5.47;;;11.90;47.00;;;;;;10439165;28;20642;-77
2023/12/12 15:54:23;;;;;;;5.00;4.27;;;11.90;47.90;;;;;;10425799;28;21220;-77
2023/12/12 15:59:26;;;;;;;4.87;4.37;;;12.00;47.30;;;;;;10427252;28;20229;-77
2023/12/12 16:04:31;;;;;;;4.63;4.23;;;12.10;47.10;;;;;;10426496;28;20233;-77
2023/12/12 16:09:34;;;;;;;4.50;4.10;;;12.10;47.00;;;;;;10437020;28;20221;-77
2023/12/12 16:14:38;;;;;;;4.00;3.60;;;12.10;46.80;;;;;;10428346;28;20238;-77
2023/12/12 16:19:43;;;;;;;5.63;5.13;;;12.10;46.70;;;;;;10430469;28;20231;-77
2023/12/12 16:24:46;;;;;;;4.73;4.33;;;12.00;47.00;;;;;;10432456;28;20237;-77
2023/12/12 16:29:49;;;;;;;5.30;4.80;;;12.00;46.80;;;;;;10429833;28;20222;-76
2023/12/12 16:34:54;;;;;;;16.97;4.50;;;12.00;46.80;;;;;;10427261;28;20237;-77
2023/12/12 16:39:58;;;;;;;10.23;8.53;;;11.90;47.70;;;;;;10431085;28;20233;-76
2023/12/12 16:45:01;;;;;;;9.43;8.53;;;11.90;47.50;;;;;;10421224;28;20902;-75
2023/12/12 16:50:06;;;;;;;5.03;4.53;;;11.90;47.70;;;;;;10423088;28;20235;-77
2023/12/12 16:55:10;;;;;;;4.40;4.00;;;12.00;48.90;;;;;;10429111;28;20241;-77
2023/12/12 17:00:15;;;;;;;3.90;3.60;;;12.00;48.30;;;;;;10434838;28;20229;-79
2023/12/12 17:05:20;;;;;;;4.40;4.10;;;12.10;48.50;;;;;;10435111;28;20662;-78
2023/12/12 17:10:24;;;;;;;4.83;4.10;;;12.20;48.80;;;;;;10426345;28;20221;-77
2023/12/12 17:15:29;;;;;;;4.33;3.93;;;12.30;48.10;;;;;;10433268;28;20260;-77
2023/12/12 17:20:34;;;;;;;4.90;4.60;;;12.30;48.10;;;;;;10427309;28;20332;-78
2023/12/12 17:25:37;;;;;;;6.27;5.77;;;12.30;47.90;;;;;;10428180;28;20233;-79
2023/12/12 17:30:41;;;;;;;5.50;5.00;;;12.30;47.60;;;;;;10428512;28;20658;-79
2023/12/12 17:35:46;;;;;;;5.03;4.63;;;12.30;47.60;;;;;;10434131;28;20601;-78
2023/12/12 17:40:50;;;;;;;6.13;5.37;;;12.40;47.90;;;;;;10432793;28;20315;-79
2023/12/12 17:45:55;;;;;;;6.83;6.17;;;12.30;47.20;;;;;;10433612;28;20233;-75
2023/12/12 17:50:59;;;;;;;5.73;5.33;;;12.30;47.20;;;;;;10422327;28;20233;-76
2023/12/12 17:56:03;;;;;;;6.93;6.33;;;12.40;47.60;;;;;;10436961;28;20927;-76
2023/12/12 18:01:06;;;;;;;7.90;7.20;;;12.30;47.30;;;;;;10433442;28;20442;-77
2023/12/12 18:06:11;;;;;;;9.83;8.93;;;12.30;47.30;;;;;;10426679;28;20339;-77
2023/12/12 18:11:15;;;;;;;16.17;14.77;;;12.30;47.40;;;;;;10432096;28;20796;-77
2023/12/12 18:16:19;;;;;;;16.50;14.90;;;12.30;47.20;;;;;;10433905;28;20287;-78
2023/12/12 18:21:24;;;;;;;14.53;13.20;;;12.20;47.20;;;;;;10434513;28;20224;-78
2023/12/12 18:26:29;;;;;;;12.13;11.13;;;12.10;47.70;;;;;;10434368;28;20236;-78
2023/12/12 18:31:34;;;;;;;10.80;9.80;;;12.10;47.70;;;;;;10431897;28;20263;-78
2023/12/12 18:36:39;;;;;;;8.90;8.20;;;12.10;47.70;;;;;;10443402;28;20263;-77
2023/12/12 18:41:44;;;;;;;57.90;30.20;;;12.20;48.00;;;;;;10444033;28;20232;-78
2023/12/12 18:46:48;;;;;;;55.30;36.20;;;12.20;47.80;;;;;;10443693;28;20232;-77
2023/12/12 18:51:54;;;;;;;19.53;15.33;;;12.20;47.80;;;;;;10447940;28;20228;-77
2023/12/12 18:56:57;;;;;;;8.83;7.90;;;12.20;48.20;;;;;;10448152;28;20248;-77
2023/12/12 19:02:00;;;;;;;8.30;6.50;;;12.10;48.10;;;;;;10448822;28;20291;-77
2023/12/12 19:07:16;;;;;;;5.77;5.27;;;12.10;48.30;;;;;;10448284;28;20237;-77
2023/12/12 19:12:20;;;;;;;5.57;5.17;;;12.00;49.50;;;;;;10448577;28;20240;-77
2023/12/12 19:17:25;;;;;;;5.00;4.57;;;12.00;48.70;;;;;;10447480;28;20312;-77
2023/12/12 19:22:29;;;;;;;5.20;4.70;;;11.90;49.10;;;;;;10406988;28;20305;-77
2023/12/12 19:27:33;;;;;;;5.77;5.20;;;11.90;49.40;;;;;;10423390;28;20236;-79
2023/12/12 19:32:37;;;;;;;6.50;5.90;;;11.90;49.10;;;;;;10447479;28;20231;-78
2023/12/12 19:37:48;;;;;;;6.23;5.63;;;11.90;49.30;;;;;;10449901;28;20236;-78
2023/12/12 19:42:54;;;;;;;6.33;5.83;;;11.90;49.80;;;;;;10441349;28;20335;-77
2023/12/12 19:47:57;;;;;;;7.50;6.90;;;11.90;49.40;;;;;;10449001;28;20237;-77
2023/12/12 19:53:04;;;;;;;12.00;10.80;;;12.00;49.30;;;;;;10450237;28;20244;-77
2023/12/12 19:58:07;;;;;;;10.27;9.37;;;12.10;49.90;;;;;;10448814;28;20264;-77
2023/12/12 20:03:11;;;;;;;9.67;8.77;;;12.20;49.10;;;;;;10447822;28;20326;-77
2023/12/12 20:08:15;;;;;;;10.07;9.13;;;12.30;49.10;;;;;;10439723;28;20918;-78
2023/12/12 20:13:19;;;;;;;8.13;7.43;;;12.30;49.20;;;;;;10439426;28;20646;-77
2023/12/12 20:18:24;;;;;;;6.27;5.73;;;12.40;48.70;;;;;;10439755;28;20237;-77
2023/12/12 20:23:29;;;;;;;6.30;5.80;;;12.40;48.50;;;;;;10426422;28;20244;-79
2023/12/12 20:28:33;;;;;;;7.60;6.93;;;12.40;48.60;;;;;;10439388;28;20730;-77
2023/12/12 20:33:37;;;;;;;6.50;5.90;;;12.40;49.10;;;;;;10441450;28;20714;-78
2023/12/12 20:38:43;;;;;;;5.70;5.20;;;12.40;48.50;;;;;;10442708;28;20284;-77
2023/12/12 20:43:50;;;;;;;6.20;5.67;;;12.40;48.90;;;;;;10441653;28;20623;-77
2023/12/12 20:48:54;;;;;;;5.37;4.97;;;12.30;48.70;;;;;;10438342;28;20236;-78
2023/12/12 20:53:59;;;;;;;8.20;7.40;;;12.30;48.60;;;;;;10435886;28;20279;-79
2023/12/12 20:59:05;;;;;;;7.63;6.93;;;12.30;49.00;;;;;;10434223;28;20627;-77
2023/12/12 21:04:08;;;;;;;6.83;6.23;;;12.30;48.80;;;;;;10435756;28;20232;-78
2023/12/12 21:09:13;;;;;;;5.70;5.10;;;12.30;48.90;;;;;;10436078;28;20229;-76
2023/12/12 21:14:16;;;;;;;5.40;4.83;;;12.30;49.30;;;;;;10442952;28;20237;-77
2023/12/12 21:19:19;;;;;;;5.23;4.83;;;12.30;49.10;;;;;;10441320;28;20224;-78
2023/12/12 21:24:24;;;;;;;5.67;5.07;;;12.30;49.30;;;;;;10423271;28;20260;-77
2023/12/12 21:29:28;;;;;;;6.50;5.90;;;12.20;49.70;;;;;;10430513;28;20324;-77
2023/12/12 21:34:31;;;;;;;4.73;4.03;;;12.30;49.50;;;;;;10430477;28;20889;-78
2023/12/12 21:39:37;;;;;;;3.63;3.33;;;12.30;49.70;;;;;;10430391;28;20844;-77
2023/12/12 21:44:40;;;;;;;3.77;3.43;;;12.20;50.30;;;;;;10429550;28;20328;-77
2023/12/12 21:49:45;;;;;;;4.17;3.77;;;12.20;50.10;;;;;;10429252;28;20745;-77
2023/12/12 21:54:49;;;;;;;4.23;3.93;;;12.20;50.10;;;;;;10429050;28;20236;-76
2023/12/12 21:59:53;;;;;;;4.03;3.70;;;12.20;50.50;;;;;;10427274;28;20233;-77
2023/12/12 22:04:56;;;;;;;4.40;4.00;;;12.20;50.70;;;;;;10428545;28;20648;-77
2023/12/12 22:10:01;;;;;;;6.40;4.60;;;12.20;50.00;;;;;;10429863;28;20237;-77
2023/12/12 22:15:06;;;;;;;5.37;4.83;;;12.20;50.40;;;;;;10427299;28;20220;-77
2023/12/12 22:20:10;;;;;;;7.10;5.60;;;12.10;50.10;;;;;;10427803;28;20235;-78
2023/12/12 22:25:15;;;;;;;4.23;3.43;;;12.10;50.20;;;;;;10427009;28;20245;-78
2023/12/12 22:30:18;;;;;;;3.60;3.30;;;12.10;50.50;;;;;;10427696;28;20244;-77
2023/12/12 22:35:22;;;;;;;4.00;3.70;;;12.10;50.10;;;;;;10426397;28;20247;-78
2023/12/12 22:40:26;;;;;;;2.60;2.40;;;12.10;50.10;;;;;;10427798;28;20801;-77
2023/12/12 22:45:29;;;;;;;3.53;2.70;;;12.10;50.40;;;;;;10427487;28;20776;-77
2023/12/12 22:50:33;;;;;;;2.33;1.93;;;12.10;50.10;;;;;;10423700;28;20221;-78
2023/12/12 22:55:43;;;;;;;2.50;2.30;;;12.10;50.00;;;;;;10426318;28;20240;-77
2023/12/12 23:00:47;;;;;;;2.40;1.93;;;12.20;50.60;;;;;;10422326;28;20228;-77
2023/12/12 23:05:50;;;;;;;2.30;2.20;;;12.10;50.20;;;;;;10417666;28;20259;-77
2023/12/12 23:10:55;;;;;;;2.40;2.00;;;12.10;50.30;;;;;;10428697;28;20367;-77
2023/12/12 23:15:58;;;;;;;2.50;2.30;;;12.00;50.80;;;;;;10427442;28;20699;-76
2023/12/12 23:21:03;;;;;;;5.77;3.60;;;12.10;50.80;;;;;;10427885;28;20294;-78
2023/12/12 23:26:08;;;;;;;3.73;2.67;;;12.10;50.80;;;;;;10423561;28;20656;-77
2023/12/12 23:31:11;;;;;;;3.80;2.90;;;12.10;51.30;;;;;;10427379;28;20225;-77
2023/12/12 23:36:15;;;;;;;4.20;2.87;;;12.10;51.10;;;;;;10426835;28;20220;-77
2023/12/12 23:41:19;;;;;;;7.33;4.17;;;12.20;51.20;;;;;;10427484;28;20225;-76
2023/12/12 23:46:23;;;;;;;6.73;3.53;;;12.30;51.50;;;;;;10418320;28;20236;-78
2023/12/12 23:51:27;;;;;;;7.03;4.37;;;12.30;51.10;;;;;;10428589;28;20606;-77
2023/12/12 23:56:31;;;;;;;5.47;3.13;;;12.30;50.90;;;;;;10426228;28;20237;-77
